sensor_id;sensor_type;location;lat;lon;timestamp;P1;durP1;ratioP1;P2;durP2;ratioP2
65377;SDS011;51982;51.042;13.806;2022-07-22T00:04:04;12.88;;;6.72;;
65377;SDS011;51982;51.042;13.806;2022-07-22T00:17:25;9.48;;;6.85;;
65377;SDS011;51982;51.042;13.806;2022-07-22T00:20:24;10.18;;;7.13;;
65377;SDS011;51982;51.042;13.806;2022-07-22T00:30:53;10.43;;;7.15;;
65377;SDS011;51982;51.042;13.806;2022-07-22T00:37:34;9.40;;;6.90;;
65377;SDS011;51982;51.042;13.806;2022-07-22T00:41:05;18.10;;;7.18;;
65377;SDS011;51982;51.042;13.806;2022-07-22T00:47:39;9.68;;;7.60;;
65377;SDS011;51982;51.042;13.806;2022-07-22T00:50:46;11.10;;;7.32;;
65377;SDS011;51982;51.042;13.806;2022-07-22T00:53:33;9.32;;;7.25;;
65377;SDS011;51982;51.042;13.806;2022-07-22T00:56:02;8.93;;;7.63;;
65377;SDS011;51982;51.042;13.806;2022-07-22T00:58:28;9.80;;;6.90;;
65377;SDS011;51982;51.042;13.806;2022-07-22T01:00:53;9.50;;;7.55;;
65377;SDS011;51982;51.042;13.806;2022-07-22T01:03:19;10.80;;;7.70;;
65377;SDS011;51982;51.042;13.806;2022-07-22T01:05:46;13.32;;;7.40;;
65377;SDS011;51982;51.042;13.806;2022-07-22T01:08:12;9.32;;;6.97;;
65377;SDS011;51982;51.042;13.806;2022-07-22T01:10:37;7.90;;;7.10;;
65377;SDS011;51982;51.042;13.806;2022-07-22T01:13:02;12.05;;;7.32;;
65377;SDS011;51982;51.042;13.806;2022-07-22T01:15:28;10.68;;;7.53;;
65377;SDS011;51982;51.042;13.806;2022-07-22T01:17:55;9.18;;;7.10;;
65377;SDS011;51982;51.042;13.806;2022-07-22T01:20:23;12.73;;;7.32;;
65377;SDS011;51982;51.042;13.806;2022-07-22T01:22:50;9.32;;;7.20;;
65377;SDS011;51982;51.042;13.806;2022-07-22T01:25:16;9.20;;;7.70;;
65377;SDS011;51982;51.042;13.806;2022-07-22T01:27:41;9.73;;;8.00;;
65377;SDS011;51982;51.042;13.806;2022-07-22T01:30:06;8.20;;;7.13;;
65377;SDS011;51982;51.042;13.806;2022-07-22T01:36:27;10.02;;;7.55;;
65377;SDS011;51982;51.042;13.806;2022-07-22T01:52:30;9.20;;;7.55;;
65377;SDS011;51982;51.042;13.806;2022-07-22T01:55:49;14.85;;;7.50;;
65377;SDS011;51982;51.042;13.806;2022-07-22T02:04:54;11.27;;;8.30;;
65377;SDS011;51982;51.042;13.806;2022-07-22T02:14:44;11.77;;;7.88;;
65377;SDS011;51982;51.042;13.806;2022-07-22T02:17:10;13.38;;;8.25;;
65377;SDS011;51982;51.042;13.806;2022-07-22T02:19:35;10.07;;;7.75;;
65377;SDS011;51982;51.042;13.806;2022-07-22T02:22:00;10.87;;;8.00;;
65377;SDS011;51982;51.042;13.806;2022-07-22T02:24:25;10.55;;;8.27;;
65377;SDS011;51982;51.042;13.806;2022-07-22T02:26:51;9.70;;;7.00;;
65377;SDS011;51982;51.042;13.806;2022-07-22T02:29:16;12.63;;;8.37;;
65377;SDS011;51982;51.042;13.806;2022-07-22T02:31:41;11.55;;;7.50;;
65377;SDS011;51982;51.042;13.806;2022-07-22T02:34:07;10.18;;;7.25;;
65377;SDS011;51982;51.042;13.806;2022-07-22T02:36:33;10.85;;;7.88;;
65377;SDS011;51982;51.042;13.806;2022-07-22T02:38:58;9.73;;;8.27;;
65377;SDS011;51982;51.042;13.806;2022-07-22T02:41:23;11.77;;;7.90;;
65377;SDS011;51982;51.042;13.806;2022-07-22T02:43:48;10.10;;;7.85;;
65377;SDS011;51982;51.042;13.806;2022-07-22T02:46:15;11.70;;;8.30;;
65377;SDS011;51982;51.042;13.806;2022-07-22T02:48:40;11.10;;;8.47;;
65377;SDS011;51982;51.042;13.806;2022-07-22T02:51:05;12.68;;;8.35;;
65377;SDS011;51982;51.042;13.806;2022-07-22T02:53:30;11.73;;;8.60;;
65377;SDS011;51982;51.042;13.806;2022-07-22T02:55:56;11.37;;;8.03;;
65377;SDS011;51982;51.042;13.806;2022-07-22T02:58:21;17.30;;;8.27;;
65377;SDS011;51982;51.042;13.806;2022-07-22T03:00:46;13.85;;;8.50;;
65377;SDS011;51982;51.042;13.806;2022-07-22T03:03:12;10.00;;;8.27;;
65377;SDS011;51982;51.042;13.806;2022-07-22T03:05:39;12.50;;;8.32;;
65377;SDS011;51982;51.042;13.806;2022-07-22T03:08:07;10.48;;;8.05;;
65377;SDS011;51982;51.042;13.806;2022-07-22T03:10:33;16.95;;;8.63;;
65377;SDS011;51982;51.042;13.806;2022-07-22T03:13:00;11.57;;;8.10;;
65377;SDS011;51982;51.042;13.806;2022-07-22T03:15:28;10.75;;;8.40;;
65377;SDS011;51982;51.042;13.806;2022-07-22T03:17:59;14.25;;;8.63;;
65377;SDS011;51982;51.042;13.806;2022-07-22T03:20:34;13.27;;;8.48;;
65377;SDS011;51982;51.042;13.806;2022-07-22T03:23:23;10.80;;;8.68;;
65377;SDS011;51982;51.042;13.806;2022-07-22T03:25:54;10.32;;;8.63;;
65377;SDS011;51982;51.042;13.806;2022-07-22T03:28:29;10.63;;;8.70;;
65377;SDS011;51982;51.042;13.806;2022-07-22T03:31:12;12.40;;;8.63;;
65377;SDS011;51982;51.042;13.806;2022-07-22T03:33:53;13.70;;;8.15;;
65377;SDS011;51982;51.042;13.806;2022-07-22T03:36:35;10.85;;;8.45;;
65377;SDS011;51982;51.042;13.806;2022-07-22T03:42:19;10.20;;;8.07;;
65377;SDS011;51982;51.042;13.806;2022-07-22T03:45:17;13.50;;;9.20;;
65377;SDS011;51982;51.042;13.806;2022-07-22T03:48:15;10.75;;;8.63;;
65377;SDS011;51982;51.042;13.806;2022-07-22T03:55:20;10.05;;;8.20;;
65377;SDS011;51982;51.042;13.806;2022-07-22T03:57:48;14.52;;;8.18;;
65377;SDS011;51982;51.042;13.806;2022-07-22T04:00:13;12.27;;;8.75;;
65377;SDS011;51982;51.042;13.806;2022-07-22T04:02:46;11.90;;;8.80;;
65377;SDS011;51982;51.042;13.806;2022-07-22T04:05:12;13.07;;;8.70;;
65377;SDS011;51982;51.042;13.806;2022-07-22T04:07:37;10.23;;;8.65;;
65377;SDS011;51982;51.042;13.806;2022-07-22T04:10:02;11.65;;;8.60;;
65377;SDS011;51982;51.042;13.806;2022-07-22T04:12:32;10.65;;;8.32;;
65377;SDS011;51982;51.042;13.806;2022-07-22T04:15:01;13.60;;;8.45;;
65377;SDS011;51982;51.042;13.806;2022-07-22T04:17:27;11.88;;;8.20;;
65377;SDS011;51982;51.042;13.806;2022-07-22T04:19:58;10.73;;;8.35;;
65377;SDS011;51982;51.042;13.806;2022-07-22T04:22:26;11.52;;;8.85;;
65377;SDS011;51982;51.042;13.806;2022-07-22T04:24:55;10.43;;;8.38;;
65377;SDS011;51982;51.042;13.806;2022-07-22T04:27:33;11.98;;;8.27;;
65377;SDS011;51982;51.042;13.806;2022-07-22T04:29:59;11.05;;;8.48;;
65377;SDS011;51982;51.042;13.806;2022-07-22T04:32:24;11.77;;;8.38;;
65377;SDS011;51982;51.042;13.806;2022-07-22T04:34:49;11.95;;;8.25;;
65377;SDS011;51982;51.042;13.806;2022-07-22T04:37:14;11.03;;;8.13;;
65377;SDS011;51982;51.042;13.806;2022-07-22T04:39:40;10.07;;;7.88;;
65377;SDS011;51982;51.042;13.806;2022-07-22T04:42:05;11.55;;;7.97;;
65377;SDS011;51982;51.042;13.806;2022-07-22T04:44:30;10.85;;;8.30;;
65377;SDS011;51982;51.042;13.806;2022-07-22T04:46:56;12.15;;;8.50;;
65377;SDS011;51982;51.042;13.806;2022-07-22T04:49:21;10.27;;;8.00;;
65377;SDS011;51982;51.042;13.806;2022-07-22T04:51:46;10.82;;;7.85;;
65377;SDS011;51982;51.042;13.806;2022-07-22T04:54:12;13.23;;;8.43;;
65377;SDS011;51982;51.042;13.806;2022-07-22T04:56:37;11.52;;;8.05;;
65377;SDS011;51982;51.042;13.806;2022-07-22T04:59:02;11.13;;;8.10;;
65377;SDS011;51982;51.042;13.806;2022-07-22T05:01:28;12.05;;;8.20;;
65377;SDS011;51982;51.042;13.806;2022-07-22T05:03:53;10.95;;;7.90;;
65377;SDS011;51982;51.042;13.806;2022-07-22T05:06:18;10.50;;;7.80;;
65377;SDS011;51982;51.042;13.806;2022-07-22T05:08:43;11.00;;;7.70;;
65377;SDS011;51982;51.042;13.806;2022-07-22T05:11:09;8.80;;;7.25;;
65377;SDS011;51982;51.042;13.806;2022-07-22T05:13:34;7.47;;;6.63;;
65377;SDS011;51982;51.042;13.806;2022-07-22T05:16:03;14.80;;;7.60;;
65377;SDS011;51982;51.042;13.806;2022-07-22T05:18:29;10.35;;;7.30;;
65377;SDS011;51982;51.042;13.806;2022-07-22T05:20:55;8.68;;;7.10;;
65377;SDS011;51982;51.042;13.806;2022-07-22T05:23:20;13.43;;;7.10;;
65377;SDS011;51982;51.042;13.806;2022-07-22T05:25:45;15.57;;;7.25;;
65377;SDS011;51982;51.042;13.806;2022-07-22T05:28:10;9.40;;;6.63;;
65377;SDS011;51982;51.042;13.806;2022-07-22T05:30:36;11.85;;;7.10;;
65377;SDS011;51982;51.042;13.806;2022-07-22T05:33:01;9.80;;;6.65;;
65377;SDS011;51982;51.042;13.806;2022-07-22T05:35:26;9.35;;;6.50;;
65377;SDS011;51982;51.042;13.806;2022-07-22T05:37:52;16.65;;;7.18;;
65377;SDS011;51982;51.042;13.806;2022-07-22T05:40:17;8.45;;;6.32;;
65377;SDS011;51982;51.042;13.806;2022-07-22T05:42:42;8.50;;;6.75;;
65377;SDS011;51982;51.042;13.806;2022-07-22T05:45:08;11.73;;;7.65;;
65377;SDS011;51982;51.042;13.806;2022-07-22T05:47:33;7.72;;;6.82;;
65377;SDS011;51982;51.042;13.806;2022-07-22T05:49:59;9.52;;;7.13;;
65377;SDS011;51982;51.042;13.806;2022-07-22T05:52:25;14.45;;;6.75;;
65377;SDS011;51982;51.042;13.806;2022-07-22T05:54:51;10.50;;;6.18;;
65377;SDS011;51982;51.042;13.806;2022-07-22T05:57:16;8.10;;;6.40;;
65377;SDS011;51982;51.042;13.806;2022-07-22T05:59:41;13.65;;;6.45;;
65377;SDS011;51982;51.042;13.806;2022-07-22T06:02:09;9.00;;;6.13;;
65377;SDS011;51982;51.042;13.806;2022-07-22T06:23:05;5.90;;;4.82;;
65377;SDS011;51982;51.042;13.806;2022-07-22T06:29:47;5.40;;;3.83;;
65377;SDS011;51982;51.042;13.806;2022-07-22T08:07:15;6.00;;;3.35;;
65377;SDS011;51982;51.042;13.806;2022-07-22T09:25:45;7.47;;;4.10;;
65377;SDS011;51982;51.042;13.806;2022-07-22T09:31:48;5.82;;;4.00;;
65377;SDS011;51982;51.042;13.806;2022-07-22T09:41:13;9.95;;;4.20;;
65377;SDS011;51982;51.042;13.806;2022-07-22T09:50:33;8.10;;;3.83;;
65377;SDS011;51982;51.042;13.806;2022-07-22T09:53:22;6.35;;;4.28;;
65377;SDS011;51982;51.042;13.806;2022-07-22T09:55:55;7.75;;;4.40;;
65377;SDS011;51982;51.042;13.806;2022-07-22T10:09:10;5.10;;;3.78;;
65377;SDS011;51982;51.042;13.806;2022-07-22T10:35:19;9.90;;;4.60;;
65377;SDS011;51982;51.042;13.806;2022-07-22T10:37:55;6.45;;;4.10;;
65377;SDS011;51982;51.042;13.806;2022-07-22T10:40:23;6.40;;;4.35;;
65377;SDS011;51982;51.042;13.806;2022-07-22T10:45:22;7.30;;;4.40;;
65377;SDS011;51982;51.042;13.806;2022-07-22T10:55:29;8.63;;;4.28;;
65377;SDS011;51982;51.042;13.806;2022-07-22T11:53:33;4.38;;;3.50;;
65377;SDS011;51982;51.042;13.806;2022-07-22T11:56:02;5.53;;;3.35;;
65377;SDS011;51982;51.042;13.806;2022-07-22T12:08:28;4.22;;;3.28;;
65377;SDS011;51982;51.042;13.806;2022-07-22T12:11:02;7.50;;;3.42;;
65377;SDS011;51982;51.042;13.806;2022-07-22T12:33:52;4.63;;;3.70;;
65377;SDS011;51982;51.042;13.806;2022-07-22T12:36:44;5.47;;;3.45;;
65377;SDS011;51982;51.042;13.806;2022-07-22T12:39:19;3.90;;;2.90;;
65377;SDS011;51982;51.042;13.806;2022-07-22T12:45:59;5.75;;;2.90;;
65377;SDS011;51982;51.042;13.806;2022-07-22T14:00:49;8.80;;;2.53;;
65377;SDS011;51982;51.042;13.806;2022-07-22T14:33:27;3.50;;;2.53;;
65377;SDS011;51982;51.042;13.806;2022-07-22T15:01:58;3.58;;;2.20;;
65377;SDS011;51982;51.042;13.806;2022-07-22T15:45:52;3.97;;;2.33;;
65377;SDS011;51982;51.042;13.806;2022-07-22T15:48:25;4.28;;;2.10;;
65377;SDS011;51982;51.042;13.806;2022-07-22T15:55:16;4.43;;;2.40;;
65377;SDS011;51982;51.042;13.806;2022-07-22T16:06:45;5.18;;;2.30;;
65377;SDS011;51982;51.042;13.806;2022-07-22T16:08:54;6.07;;;2.40;;
65377;SDS011;51982;51.042;13.806;2022-07-22T16:11:24;3.45;;;2.28;;
65377;SDS011;51982;51.042;13.806;2022-07-22T16:13:52;3.72;;;2.42;;
65377;SDS011;51982;51.042;13.806;2022-07-22T16:16:40;3.60;;;2.10;;
65377;SDS011;51982;51.042;13.806;2022-07-22T16:19:06;2.80;;;2.20;;
65377;SDS011;51982;51.042;13.806;2022-07-22T16:21:31;2.92;;;2.17;;
65377;SDS011;51982;51.042;13.806;2022-07-22T16:23:56;5.35;;;2.17;;
65377;SDS011;51982;51.042;13.806;2022-07-22T16:26:22;4.82;;;2.50;;
65377;SDS011;51982;51.042;13.806;2022-07-22T16:28:47;2.60;;;2.10;;
65377;SDS011;51982;51.042;13.806;2022-07-22T16:31:24;4.03;;;2.15;;
65377;SDS011;51982;51.042;13.806;2022-07-22T16:33:50;5.55;;;2.17;;
65377;SDS011;51982;51.042;13.806;2022-07-22T16:36:16;7.13;;;2.25;;
65377;SDS011;51982;51.042;13.806;2022-07-22T16:38:44;3.15;;;2.15;;
65377;SDS011;51982;51.042;13.806;2022-07-22T16:41:12;6.32;;;2.10;;
65377;SDS011;51982;51.042;13.806;2022-07-22T16:43:37;3.97;;;2.05;;
65377;SDS011;51982;51.042;13.806;2022-07-22T16:46:05;4.50;;;1.92;;
65377;SDS011;51982;51.042;13.806;2022-07-22T16:48:31;3.17;;;2.10;;
65377;SDS011;51982;51.042;13.806;2022-07-22T16:50:56;3.03;;;2.00;;
65377;SDS011;51982;51.042;13.806;2022-07-22T16:53:21;5.20;;;2.30;;
65377;SDS011;51982;51.042;13.806;2022-07-22T16:55:47;4.10;;;3.13;;
65377;SDS011;51982;51.042;13.806;2022-07-22T16:58:14;3.72;;;1.90;;
65377;SDS011;51982;51.042;13.806;2022-07-22T17:00:43;2.45;;;2.00;;
65377;SDS011;51982;51.042;13.806;2022-07-22T17:03:08;6.40;;;2.30;;
65377;SDS011;51982;51.042;13.806;2022-07-22T17:05:37;7.05;;;2.20;;
65377;SDS011;51982;51.042;13.806;2022-07-22T17:08:05;4.20;;;2.10;;
65377;SDS011;51982;51.042;13.806;2022-07-22T17:10:30;3.97;;;2.13;;
65377;SDS011;51982;51.042;13.806;2022-07-22T17:12:58;4.85;;;2.05;;
65377;SDS011;51982;51.042;13.806;2022-07-22T17:15:24;4.70;;;2.30;;
65377;SDS011;51982;51.042;13.806;2022-07-22T17:17:49;2.10;;;1.90;;
65377;SDS011;51982;51.042;13.806;2022-07-22T17:20:15;2.67;;;1.98;;
65377;SDS011;51982;51.042;13.806;2022-07-22T17:22:40;3.15;;;2.03;;
65377;SDS011;51982;51.042;13.806;2022-07-22T17:25:06;2.55;;;2.00;;
65377;SDS011;51982;51.042;13.806;2022-07-22T17:27:32;6.95;;;2.17;;
65377;SDS011;51982;51.042;13.806;2022-07-22T17:29:58;6.85;;;2.10;;
65377;SDS011;51982;51.042;13.806;2022-07-22T17:32:24;2.92;;;2.15;;
65377;SDS011;51982;51.042;13.806;2022-07-22T17:34:49;4.90;;;2.08;;
65377;SDS011;51982;51.042;13.806;2022-07-22T17:37:14;3.45;;;2.10;;
65377;SDS011;51982;51.042;13.806;2022-07-22T17:39:40;2.40;;;1.70;;
65377;SDS011;51982;51.042;13.806;2022-07-22T17:42:05;8.17;;;2.63;;
65377;SDS011;51982;51.042;13.806;2022-07-22T17:44:30;3.50;;;1.95;;
65377;SDS011;51982;51.042;13.806;2022-07-22T17:46:56;3.90;;;2.10;;
65377;SDS011;51982;51.042;13.806;2022-07-22T17:49:21;5.30;;;2.40;;
65377;SDS011;51982;51.042;13.806;2022-07-22T17:51:46;4.30;;;1.97;;
65377;SDS011;51982;51.042;13.806;2022-07-22T17:54:11;4.30;;;2.17;;
65377;SDS011;51982;51.042;13.806;2022-07-22T17:56:37;4.93;;;2.00;;
65377;SDS011;51982;51.042;13.806;2022-07-22T17:59:02;3.03;;;2.00;;
65377;SDS011;51982;51.042;13.806;2022-07-22T18:01:27;4.35;;;2.25;;
65377;SDS011;51982;51.042;13.806;2022-07-22T18:03:52;3.58;;;2.15;;
65377;SDS011;51982;51.042;13.806;2022-07-22T18:06:18;2.33;;;2.00;;
65377;SDS011;51982;51.042;13.806;2022-07-22T18:08:43;2.88;;;2.10;;
65377;SDS011;51982;51.042;13.806;2022-07-22T18:11:11;7.35;;;2.35;;
65377;SDS011;51982;51.042;13.806;2022-07-22T18:13:38;3.17;;;2.10;;
65377;SDS011;51982;51.042;13.806;2022-07-22T18:16:04;5.22;;;1.90;;
65377;SDS011;51982;51.042;13.806;2022-07-22T18:18:29;3.55;;;2.40;;
65377;SDS011;51982;51.042;13.806;2022-07-22T18:20:54;3.07;;;2.23;;
65377;SDS011;51982;51.042;13.806;2022-07-22T18:23:19;2.97;;;1.77;;
65377;SDS011;51982;51.042;13.806;2022-07-22T18:25:45;2.70;;;1.98;;
65377;SDS011;51982;51.042;13.806;2022-07-22T18:28:10;2.77;;;1.90;;
65377;SDS011;51982;51.042;13.806;2022-07-22T18:30:35;4.10;;;2.20;;
65377;SDS011;51982;51.042;13.806;2022-07-22T18:33:00;2.80;;;2.10;;
65377;SDS011;51982;51.042;13.806;2022-07-22T18:35:26;3.70;;;2.10;;
65377;SDS011;51982;51.042;13.806;2022-07-22T18:37:51;4.45;;;2.28;;
65377;SDS011;51982;51.042;13.806;2022-07-22T18:40:16;5.95;;;2.50;;
65377;SDS011;51982;51.042;13.806;2022-07-22T18:42:41;2.95;;;2.10;;
65377;SDS011;51982;51.042;13.806;2022-07-22T18:45:07;4.57;;;2.00;;
65377;SDS011;51982;51.042;13.806;2022-07-22T18:47:32;4.57;;;2.05;;
65377;SDS011;51982;51.042;13.806;2022-07-22T18:49:58;21.90;;;13.25;;
65377;SDS011;51982;51.042;13.806;2022-07-22T18:52:23;20.73;;;14.17;;
65377;SDS011;51982;51.042;13.806;2022-07-22T18:54:48;3.20;;;2.40;;
65377;SDS011;51982;51.042;13.806;2022-07-22T18:57:14;7.07;;;2.30;;
65377;SDS011;51982;51.042;13.806;2022-07-22T18:59:39;4.07;;;2.25;;
65377;SDS011;51982;51.042;13.806;2022-07-22T19:02:05;5.53;;;2.17;;
65377;SDS011;51982;51.042;13.806;2022-07-22T19:04:30;5.90;;;2.17;;
65377;SDS011;51982;51.042;13.806;2022-07-22T19:06:56;8.13;;;2.20;;
65377;SDS011;51982;51.042;13.806;2022-07-22T19:09:21;7.55;;;2.80;;
65377;SDS011;51982;51.042;13.806;2022-07-22T19:11:46;4.18;;;2.28;;
65377;SDS011;51982;51.042;13.806;2022-07-22T19:14:12;3.67;;;2.30;;
65377;SDS011;51982;51.042;13.806;2022-07-22T19:16:37;7.97;;;2.22;;
65377;SDS011;51982;51.042;13.806;2022-07-22T19:19:02;2.55;;;2.08;;
65377;SDS011;51982;51.042;13.806;2022-07-22T19:21:28;4.70;;;2.10;;
65377;SDS011;51982;51.042;13.806;2022-07-22T19:23:56;3.40;;;2.22;;
65377;SDS011;51982;51.042;13.806;2022-07-22T19:26:21;2.60;;;2.20;;
65377;SDS011;51982;51.042;13.806;2022-07-22T19:28:47;2.67;;;2.10;;
65377;SDS011;51982;51.042;13.806;2022-07-22T19:31:13;3.90;;;2.22;;
65377;SDS011;51982;51.042;13.806;2022-07-22T19:33:39;7.45;;;2.17;;
65377;SDS011;51982;51.042;13.806;2022-07-22T19:36:04;5.78;;;2.65;;
65377;SDS011;51982;51.042;13.806;2022-07-22T19:38:29;4.20;;;2.42;;
65377;SDS011;51982;51.042;13.806;2022-07-22T19:40:55;6.22;;;2.30;;
65377;SDS011;51982;51.042;13.806;2022-07-22T19:43:20;5.00;;;2.47;;
65377;SDS011;51982;51.042;13.806;2022-07-22T19:45:46;6.18;;;2.40;;
65377;SDS011;51982;51.042;13.806;2022-07-22T19:48:11;5.53;;;2.15;;
65377;SDS011;51982;51.042;13.806;2022-07-22T19:50:36;4.97;;;2.47;;
65377;SDS011;51982;51.042;13.806;2022-07-22T19:53:02;2.75;;;1.92;;
65377;SDS011;51982;51.042;13.806;2022-07-22T19:55:28;3.00;;;2.10;;
65377;SDS011;51982;51.042;13.806;2022-07-22T19:57:53;3.90;;;2.13;;
65377;SDS011;51982;51.042;13.806;2022-07-22T20:00:19;3.95;;;2.10;;
65377;SDS011;51982;51.042;13.806;2022-07-22T20:02:45;3.95;;;1.90;;
65377;SDS011;51982;51.042;13.806;2022-07-22T20:05:10;3.78;;;2.20;;
65377;SDS011;51982;51.042;13.806;2022-07-22T20:07:36;4.43;;;2.28;;
65377;SDS011;51982;51.042;13.806;2022-07-22T20:10:03;5.30;;;1.98;;
65377;SDS011;51982;51.042;13.806;2022-07-22T20:12:29;3.40;;;2.10;;
65377;SDS011;51982;51.042;13.806;2022-07-22T20:14:54;6.85;;;2.10;;
65377;SDS011;51982;51.042;13.806;2022-07-22T20:17:20;4.32;;;2.20;;
65377;SDS011;51982;51.042;13.806;2022-07-22T20:19:45;2.67;;;1.83;;
65377;SDS011;51982;51.042;13.806;2022-07-22T20:22:10;2.70;;;2.10;;
65377;SDS011;51982;51.042;13.806;2022-07-22T20:24:36;3.30;;;1.98;;
65377;SDS011;51982;51.042;13.806;2022-07-22T20:27:02;2.50;;;2.00;;
65377;SDS011;51982;51.042;13.806;2022-07-22T20:29:28;2.65;;;2.33;;
65377;SDS011;51982;51.042;13.806;2022-07-22T20:31:53;2.90;;;2.10;;
65377;SDS011;51982;51.042;13.806;2022-07-22T20:34:19;3.30;;;2.33;;
65377;SDS011;51982;51.042;13.806;2022-07-22T20:36:45;5.35;;;2.50;;
65377;SDS011;51982;51.042;13.806;2022-07-22T20:39:11;2.55;;;2.20;;
65377;SDS011;51982;51.042;13.806;2022-07-22T20:41:37;3.30;;;2.20;;
65377;SDS011;51982;51.042;13.806;2022-07-22T20:44:03;3.88;;;2.20;;
65377;SDS011;51982;51.042;13.806;2022-07-22T20:46:28;3.47;;;2.50;;
65377;SDS011;51982;51.042;13.806;2022-07-22T20:48:53;2.37;;;1.93;;
65377;SDS011;51982;51.042;13.806;2022-07-22T20:51:19;2.50;;;2.20;;
65377;SDS011;51982;51.042;13.806;2022-07-22T20:53:44;3.05;;;1.90;;
65377;SDS011;51982;51.042;13.806;2022-07-22T20:56:09;4.73;;;2.40;;
65377;SDS011;51982;51.042;13.806;2022-07-22T20:58:35;4.70;;;2.30;;
65377;SDS011;51982;51.042;13.806;2022-07-22T21:01:00;4.65;;;2.50;;
65377;SDS011;51982;51.042;13.806;2022-07-22T21:03:25;3.93;;;2.23;;
65377;SDS011;51982;51.042;13.806;2022-07-22T21:05:50;3.60;;;2.20;;
65377;SDS011;51982;51.042;13.806;2022-07-22T21:08:16;4.63;;;2.20;;
65377;SDS011;51982;51.042;13.806;2022-07-22T21:10:42;3.00;;;2.30;;
65377;SDS011;51982;51.042;13.806;2022-07-22T21:13:07;3.25;;;2.20;;
65377;SDS011;51982;51.042;13.806;2022-07-22T21:15:33;5.32;;;2.03;;
65377;SDS011;51982;51.042;13.806;2022-07-22T21:17:58;4.93;;;1.98;;
65377;SDS011;51982;51.042;13.806;2022-07-22T21:20:23;3.67;;;2.70;;
65377;SDS011;51982;51.042;13.806;2022-07-22T21:22:49;7.03;;;2.53;;
65377;SDS011;51982;51.042;13.806;2022-07-22T21:25:14;2.85;;;2.13;;
65377;SDS011;51982;51.042;13.806;2022-07-22T21:27:40;3.50;;;2.17;;
65377;SDS011;51982;51.042;13.806;2022-07-22T21:30:05;3.50;;;2.20;;
65377;SDS011;51982;51.042;13.806;2022-07-22T21:32:31;4.70;;;2.53;;
65377;SDS011;51982;51.042;13.806;2022-07-22T21:34:57;3.35;;;2.30;;
65377;SDS011;51982;51.042;13.806;2022-07-22T21:37:23;4.10;;;2.33;;
65377;SDS011;51982;51.042;13.806;2022-07-22T21:39:48;3.63;;;2.45;;
65377;SDS011;51982;51.042;13.806;2022-07-22T21:42:13;2.60;;;2.10;;
65377;SDS011;51982;51.042;13.806;2022-07-22T21:44:39;4.68;;;2.50;;
65377;SDS011;51982;51.042;13.806;2022-07-22T21:47:04;4.03;;;2.20;;
65377;SDS011;51982;51.042;13.806;2022-07-22T21:49:29;4.50;;;2.20;;
65377;SDS011;51982;51.042;13.806;2022-07-22T21:51:54;3.53;;;2.30;;
65377;SDS011;51982;51.042;13.806;2022-07-22T21:54:20;4.63;;;2.30;;
65377;SDS011;51982;51.042;13.806;2022-07-22T21:56:48;8.68;;;3.28;;
65377;SDS011;51982;51.042;13.806;2022-07-22T22:08:26;3.70;;;2.20;;
65377;SDS011;51982;51.042;13.806;2022-07-22T22:11:40;5.63;;;2.37;;
65377;SDS011;51982;51.042;13.806;2022-07-22T23:31:03;3.28;;;2.42;;
